Time;durP1;ratioP1;P1;durP2;ratioP2;P2;SDS_P1;SDS_P2;PMS_P1;PMS_P2;Temp;Humidity;BMP_temperature;BMP_pressure;BME280_temperature;BME280_humidity;BME280_pressure;Samples;Min_cycle;Max_cycle;Signal;HPM_P1;HPM_P2
2022/08/02 00:01:35;;;;;;;4.42;4.10;;;;;;;19.16;75.37;100352.34;2101794;84;27602;-69
2022/08/02 00:04:39;;;;;;;5.03;4.53;;;;;;;19.13;75.26;100351.24;2101855;84;28849;-68
2022/08/02 00:07:41;;;;;;;5.15;4.53;;;;;;;19.10;75.29;100346.06;2101484;84;31195;-68
2022/08/02 00:10:43;;;;;;;6.67;4.60;;;;;;;19.05;75.29;100351.02;2101829;84;32986;-67
2022/08/02 00:13:45;;;;;;;4.80;4.35;;;;;;;19.02;75.34;100349.44;2075857;84;30393;-67
2022/08/02 00:16:46;;;;;;;6.28;4.15;;;;;;;19.00;75.34;100347.84;2101575;84;28303;-68
2022/08/02 00:19:47;;;;;;;5.05;4.45;;;;;;;18.97;75.38;100357.09;2101587;84;28765;-68
2022/08/02 00:22:52;;;;;;;5.97;4.90;;;;;;;18.94;75.46;100354.63;2100307;84;31406;-67
2022/08/02 00:25:57;;;;;;;4.42;3.98;;;;;;;18.93;75.50;100359.70;2066961;86;32999;-67
2022/08/02 00:29:03;;;;;;;6.20;4.45;;;;;;;18.93;75.51;100359.70;2066862;86;29385;-68
2022/08/02 00:32:04;;;;;;;3.85;3.47;;;;;;;18.90;75.55;100363.51;2067101;86;27738;-66
2022/08/02 00:35:08;;;;;;;4.00;3.70;;;;;;;18.90;75.51;100364.87;2052335;84;27696;-62
2022/08/02 00:38:09;;;;;;;3.60;3.27;;;;;;;18.90;75.50;100365.38;2101674;84;30860;-62
2022/08/02 00:41:13;;;;;;;4.00;3.60;;;;;;;18.88;75.50;100365.48;2101684;84;33354;-64
2022/08/02 00:44:16;;;;;;;15.87;6.20;;;;;;;18.83;75.51;100357.73;2101907;84;29470;-64
2022/08/02 00:47:17;;;;;;;4.20;3.80;;;;;;;18.83;75.51;100357.73;2102130;84;27641;-65
2022/08/02 00:50:19;;;;;;;4.30;3.80;;;;;;;18.81;75.43;100358.36;2101796;84;28817;-66
2022/08/02 00:53:20;;;;;;;3.72;3.42;;;;;;;18.80;75.48;100357.14;2101470;84;31407;-67
2022/08/02 00:56:21;;;;;;;4.30;3.90;;;;;;;18.78;75.58;100360.47;2101967;84;33397;-63
2022/08/02 00:59:23;;;;;;;4.00;3.55;;;;;;;18.76;75.58;100357.02;2102723;84;29685;-62
2022/08/02 01:02:25;;;;;;;4.40;4.03;;;;;;;18.74;75.62;100354.45;2102185;84;28335;-65
2022/08/02 01:05:29;;;;;;;6.28;3.75;;;;;;;18.71;75.57;100358.77;2102555;84;29660;-64
2022/08/02 01:08:39;;;;;;;5.00;3.77;;;;;;;18.64;75.39;100365.20;2102590;84;31136;-66
2022/08/02 01:11:36;;;;;;;9.08;3.85;;;;;;;18.64;75.39;100365.20;2068073;86;33386;-64
2022/08/02 01:14:43;;;;;;;4.92;3.42;;;;;;;18.62;75.66;100369.02;2069981;86;29708;-63
2022/08/02 01:18:10;;;;;;;4.83;3.62;;;;;;;18.57;75.73;100364.48;2069809;86;27689;-62
2022/08/02 01:21:17;;;;;;;4.30;3.90;;;;;;;18.53;75.69;100370.66;2069662;86;29501;-62
2022/08/02 01:24:27;;;;;;;4.35;4.05;;;;;;;18.49;75.74;100365.11;2066359;86;31420;-67
2022/08/02 01:28:09;;;;;;;4.47;4.10;;;;;;;18.45;75.81;100364.98;2067150;86;33044;-63
2022/08/02 01:31:37;;;;;;;5.10;4.35;;;;;;;18.39;75.78;100369.07;2045586;87;30513;-62
2022/08/02 01:34:55;;;;;;;4.22;3.75;;;;;;;18.32;75.85;100371.42;2046206;87;27616;-64
2022/08/02 01:38:16;;;;;;;5.47;4.42;;;;;;;18.26;75.92;100374.62;2045988;87;28664;-63
2022/08/02 01:41:21;;;;;;;5.12;4.10;;;;;;;18.20;75.97;100375.98;2045179;87;31852;-63
2022/08/02 01:44:24;;;;;;;4.40;4.00;;;;;;;18.14;76.01;100375.62;2045834;87;33043;-62
2022/08/02 01:47:30;;;;;;;3.70;3.40;;;;;;;18.10;76.12;100371.42;2046240;87;29764;-62
2022/08/02 01:50:35;;;;;;;4.75;4.20;;;;;;;18.04;76.21;100374.98;2045859;87;27737;-63
2022/08/02 01:53:37;;;;;;;5.70;4.33;;;;;;;17.98;76.30;100367.36;2046126;87;28075;-63
2022/08/02 01:56:39;;;;;;;8.00;4.30;;;;;;;17.94;76.28;100365.00;2045862;87;31134;-62
2022/08/02 01:59:43;;;;;;;4.85;3.92;;;;;;;17.88;76.32;100366.31;2045798;87;33117;-63
2022/08/02 02:02:48;;;;;;;4.55;4.15;;;;;;;17.82;76.29;100362.77;2062841;85;29448;-62
2022/08/02 02:05:51;;;;;;;4.37;4.00;;;;;;;17.74;76.35;100370.14;2067738;84;27679;-65
2022/08/02 02:08:53;;;;;;;5.58;4.28;;;;;;;17.68;76.40;100376.03;2051925;86;28727;-61
2022/08/02 02:11:57;;;;;;;4.97;4.58;;;;;;;17.60;76.54;100370.75;2052319;86;31428;-61
2022/08/02 02:14:59;;;;;;;4.53;4.12;;;;;;;17.55;76.72;100374.30;2032714;86;32989;-67
2022/08/02 02:18:02;;;;;;;5.83;5.33;;;;;;;17.51;76.89;100376.86;2019605;88;29394;-64
2022/08/02 02:21:03;;;;;;;5.70;4.62;;;;;;;17.46;77.01;100380.41;2022327;86;27766;-62
2022/08/02 02:24:05;;;;;;;5.10;4.67;;;;;;;17.40;77.06;100368.72;2039412;87;28710;-67
2022/08/02 02:27:08;;;;;;;6.62;4.22;;;;;;;17.36;77.13;100372.64;2039184;86;32292;-63
2022/08/02 02:30:11;;;;;;;5.97;4.70;;;;;;;17.31;77.33;100376.55;2039469;87;33155;-62
2022/08/02 02:33:13;;;;;;;5.17;4.37;;;;;;;17.27;77.40;100383.68;2039445;87;29355;-64
2022/08/02 02:36:18;;;;;;;7.20;4.37;;;;;;;17.21;77.41;100385.53;2017186;87;27719;-67
2022/08/02 02:39:23;;;;;;;6.95;5.20;;;;;;;17.15;77.49;100383.65;2076054;85;29855;-62
2022/08/02 02:42:29;;;;;;;5.17;4.67;;;;;;;17.12;77.60;100383.88;2082949;85;32004;-61
2022/08/02 02:45:31;;;;;;;6.12;5.53;;;;;;;17.07;77.70;100385.21;2082916;85;33588;-65
2022/08/02 02:48:34;;;;;;;5.58;5.05;;;;;;;17.03;77.81;100385.06;2082837;85;29134;-64
2022/08/02 02:51:40;;;;;;;6.20;5.20;;;;;;;16.98;77.92;100388.12;2078884;85;27599;-67
2022/08/02 02:54:46;;;;;;;5.70;5.25;;;;;;;16.95;78.12;100387.00;2068984;85;28654;-63
2022/08/02 02:57:48;;;;;;;5.15;4.62;;;;;;;16.91;78.26;100387.69;2068837;85;31023;-66
2022/08/02 03:04:11;;;;;;;6.00;5.40;;;;;;;16.84;78.37;100385.94;2068831;86;29363;-64
2022/08/02 03:07:12;;;;;;;6.03;5.35;;;;;;;16.81;78.48;100389.34;2073500;84;28177;-64
2022/08/02 03:10:13;;;;;;;9.00;5.05;;;;;;;16.78;78.66;100389.59;2079800;85;29293;-61
2022/08/02 03:13:17;;;;;;;6.05;5.40;;;;;;;16.75;78.61;100391.17;2080345;84;32554;-63
2022/08/02 03:16:18;;;;;;;6.55;5.47;;;;;;;16.71;78.67;100390.03;2080084;85;33812;-60
2022/08/02 03:19:21;;;;;;;8.90;5.65;;;;;;;16.68;78.69;100392.12;2080347;85;30522;-65
2022/08/02 03:22:23;;;;;;;6.17;5.62;;;;;;;16.63;78.80;100387.52;2088125;85;27615;-61
2022/08/02 03:25:24;;;;;;;6.10;5.50;;;;;;;16.61;78.91;100396.23;2088152;85;29354;-60
2022/08/02 03:28:26;;;;;;;7.25;5.60;;;;;;;16.59;78.97;100392.78;2077611;84;30829;-62
2022/08/02 03:31:27;;;;;;;6.90;6.30;;;;;;;16.56;79.07;100396.58;2077543;85;32899;-61
2022/08/02 03:34:28;;;;;;;6.65;5.97;;;;;;;16.53;79.19;100395.45;2077638;85;29712;-61
2022/08/02 03:37:31;;;;;;;7.97;6.00;;;;;;;16.51;79.36;100401.45;2078158;85;28197;-62
2022/08/02 03:40:33;;;;;;;6.97;5.87;;;;;;;16.50;79.30;100399.25;2077556;85;28658;-62
2022/08/02 03:43:35;;;;;;;6.47;5.70;;;;;;;16.49;79.38;100400.70;2105473;84;31475;-62
2022/08/02 03:46:38;;;;;;;6.65;6.05;;;;;;;16.47;79.53;100405.34;2045245;84;33026;-61
2022/08/02 03:49:41;;;;;;;6.67;6.08;;;;;;;16.46;79.63;100407.70;2104607;84;30160;-64
2022/08/02 03:52:45;;;;;;;7.53;6.85;;;;;;;16.47;79.77;100411.64;2102894;84;27684;-64
2022/08/02 03:55:47;;;;;;;7.60;6.33;;;;;;;16.48;79.85;100417.42;2093989;84;28656;-61
2022/08/02 03:58:49;;;;;;;7.67;6.65;;;;;;;16.49;79.96;100420.51;2079134;85;31687;-61
2022/08/02 04:01:50;;;;;;;8.15;7.12;;;;;;;16.52;80.06;100422.11;2078843;85;33095;-61
2022/08/02 04:04:52;;;;;;;7.28;6.55;;;;;;;16.55;80.15;100425.95;2078904;85;30531;-62
2022/08/02 04:07:54;;;;;;;8.73;6.97;;;;;;;16.59;80.24;100436.93;2072477;85;27851;-61
2022/08/02 04:14:15;;;;;;;8.95;7.55;;;;;;;16.68;80.36;100443.01;2064828;86;31654;-62
2022/08/02 04:17:17;;;;;;;10.75;6.87;;;;;;;16.73;80.44;100449.43;2064821;86;32875;-61
2022/08/02 04:20:22;;;;;;;8.80;7.17;;;;;;;16.77;80.47;100450.94;2070267;85;28897;-62
2022/08/02 04:23:25;;;;;;;13.25;7.50;;;;;;;16.84;80.59;100459.00;2043521;87;27678;-62
2022/08/02 04:26:26;;;;;;;8.83;7.42;;;;;;;16.89;80.65;100458.65;2078994;85;28696;-62
2022/08/02 04:29:28;;;;;;;8.60;7.75;;;;;;;16.97;80.71;100463.53;2029504;87;31470;-62
2022/08/02 04:32:31;;;;;;;9.98;7.97;;;;;;;17.03;80.62;100463.55;2079014;85;33373;-64
2022/08/02 04:35:32;;;;;;;7.92;7.10;;;;;;;17.08;80.58;100466.80;2079215;85;29754;-62
2022/08/02 04:38:34;;;;;;;7.62;6.92;;;;;;;17.14;80.61;100472.61;2079256;85;27634;-62
2022/08/02 04:41:39;;;;;;;7.83;6.95;;;;;;;17.22;80.60;100472.51;2078950;85;28690;-62
2022/08/02 04:44:40;;;;;;;7.65;6.95;;;;;;;17.30;80.63;100474.16;2078666;85;31033;-63
2022/08/02 04:47:42;;;;;;;8.10;7.35;;;;;;;17.40;80.71;100471.13;2078910;85;34262;-63
2022/08/02 04:50:43;;;;;;;9.80;7.33;;;;;;;17.52;80.79;100471.19;2078735;85;30444;-63
2022/08/02 04:53:45;;;;;;;10.25;7.30;;;;;;;17.68;80.93;100476.28;2079175;85;27701;-62
2022/08/02 04:56:46;;;;;;;9.00;7.30;;;;;;;18.07;81.65;100476.92;2078985;85;29044;-61
2022/08/02 04:59:47;;;;;;;6.85;6.20;;;;;;;18.91;82.27;100471.11;2043435;87;30782;-63
2022/08/02 05:02:50;;;;;;;6.80;5.30;;;;;;;19.91;82.02;100473.27;2079039;85;33301;-65
2022/08/02 05:05:52;;;;;;;6.72;6.12;;;;;;;20.90;80.85;100482.30;2064882;85;30004;-66
2022/08/02 05:08:53;;;;;;;8.00;5.28;;;;;;;21.87;79.11;100488.50;2064825;84;27790;-64
2022/08/02 05:11:55;;;;;;;9.05;5.22;;;;;;;22.42;77.03;100485.09;2064951;85;29091;-62
2022/08/02 05:14:56;;;;;;;6.85;5.05;;;;;;;22.47;75.07;100488.25;2079400;85;31044;-62
2022/08/02 05:17:58;;;;;;;5.92;5.30;;;;;;;22.44;74.30;100481.19;2078900;85;33354;-63
2022/08/02 05:20:59;;;;;;;7.47;5.17;;;;;;;22.50;73.87;100488.44;2050999;85;30099;-63
2022/08/02 05:24:01;;;;;;;5.55;5.03;;;;;;;22.54;73.42;100496.17;2078853;85;27689;-63
2022/08/02 05:27:02;;;;;;;6.12;5.53;;;;;;;22.45;72.76;100500.66;2079095;85;29049;-63
2022/08/02 05:30:05;;;;;;;6.72;4.65;;;;;;;22.49;72.51;100497.64;2043554;87;31177;-66
2022/08/02 05:33:06;;;;;;;5.83;5.22;;;;;;;22.55;72.58;100506.09;2078891;85;33781;-65
2022/08/02 05:36:08;;;;;;;6.83;5.78;;;;;;;22.59;72.00;100506.16;2043153;87;29749;-64
2022/08/02 05:39:09;;;;;;;8.50;5.58;;;;;;;22.68;71.72;100502.16;2078954;85;27673;-66
2022/08/02 05:42:10;;;;;;;8.55;5.65;;;;;;;22.65;71.29;100509.30;2065372;86;28680;-67
2022/08/02 05:45:12;;;;;;;6.85;5.70;;;;;;;22.68;71.32;100509.86;2065125;85;32125;-67
2022/08/02 05:48:13;;;;;;;6.83;5.10;;;;;;;22.82;70.99;100516.70;2079409;85;33335;-67
2022/08/02 05:51:25;;;;;;;6.83;6.03;;;;;;;23.04;71.22;100515.92;2070388;85;29720;-67
2022/08/02 05:54:49;;;;;;;8.73;5.40;;;;;;;23.30;70.47;100517.45;2073694;85;28192;-66
2022/08/02 05:58:04;;;;;;;8.68;5.70;;;;;;;23.58;70.25;100518.75;2055407;85;29046;-67
2022/08/02 06:01:07;;;;;;;7.30;5.62;;;;;;;23.85;69.58;100520.19;2076992;85;32220;-66
2022/08/02 06:04:14;;;;;;;6.62;5.20;;;;;;;24.08;68.78;100519.22;2077003;85;33378;-66
2022/08/02 06:07:18;;;;;;;5.42;4.90;;;;;;;24.25;68.04;100521.58;2077719;85;30691;-67
2022/08/02 06:10:21;;;;;;;5.60;5.10;;;;;;;24.46;67.60;100523.93;2087930;85;27695;-66
2022/08/02 06:13:23;;;;;;;10.03;5.20;;;;;;;24.76;67.46;100523.09;2087769;85;29524;-66
2022/08/02 06:16:27;;;;;;;8.50;4.55;;;;;;;25.18;66.83;100528.23;2040054;85;31043;-66
2022/08/02 06:19:29;;;;;;;6.55;4.28;;;;;;;25.64;65.74;100531.97;2086959;85;34157;-66
2022/08/02 06:22:31;;;;;;;5.10;4.00;;;;;;;26.05;65.26;100527.89;2088128;85;30300;-66
2022/08/02 06:25:35;;;;;;;4.17;3.77;;;;;;;26.65;64.74;100538.61;2087810;85;27635;-62
2022/08/02 06:28:38;;;;;;;4.70;3.98;;;;;;;27.25;64.02;100541.86;2087845;85;28658;-62
2022/08/02 06:31:41;;;;;;;5.60;4.08;;;;;;;27.72;62.50;100542.78;2088042;85;31809;-63
2022/08/02 06:34:42;;;;;;;4.62;4.10;;;;;;;28.13;61.26;100544.41;2087643;85;33804;-63
2022/08/02 06:37:57;;;;;;;5.20;4.12;;;;;;;28.42;60.41;100543.59;2087380;85;29370;-62
2022/08/02 06:41:12;;;;;;;4.12;3.72;;;;;;;28.58;58.89;100547.20;2087889;85;27663;-63
2022/08/02 06:44:13;;;;;;;6.05;4.15;;;;;;;28.79;58.69;100551.48;2087277;85;29070;-63
2022/08/02 06:47:15;;;;;;;7.08;3.92;;;;;;;28.88;57.49;100545.86;2087722;85;30770;-65
2022/08/02 06:50:17;;;;;;;4.33;3.92;;;;;;;29.21;57.33;100551.83;2087526;85;33095;-65
2022/08/02 06:53:18;;;;;;;5.53;3.83;;;;;;;29.67;56.32;100553.45;2087766;85;30477;-65
2022/08/02 06:56:20;;;;;;;3.60;3.30;;;;;;;29.97;55.09;100549.20;2087740;85;27727;-63
2022/08/02 06:59:21;;;;;;;7.10;3.70;;;;;;;29.97;54.30;100551.97;2087765;85;28652;-63
2022/08/02 07:02:23;;;;;;;5.50;3.83;;;;;;;30.32;54.56;100549.80;2087604;85;31392;-64
2022/08/02 07:05:24;;;;;;;4.92;4.00;;;;;;;30.69;53.85;100552.45;2087592;85;34102;-66
2022/08/02 07:08:37;;;;;;;4.37;3.85;;;;;;;31.04;52.91;100555.17;2082752;85;28917;-64
2022/08/02 07:11:30;;;;;;;5.25;4.12;;;;;;;31.41;52.22;100548.02;2074186;85;27670;-63
2022/08/02 07:14:32;;;;;;;3.62;3.30;;;;;;;31.62;51.40;100560.85;2075848;85;29136;-65
2022/08/02 07:17:34;;;;;;;6.58;3.95;;;;;;;31.44;51.07;100555.91;2075987;85;31403;-65
2022/08/02 07:20:35;;;;;;;5.37;3.35;;;;;;;31.58;49.49;100548.48;2073326;85;33480;-63
2022/08/02 07:23:36;;;;;;;5.80;3.27;;;;;;;31.61;48.77;100546.67;2029237;87;30504;-65
2022/08/02 07:26:38;;;;;;;4.08;3.67;;;;;;;31.75;48.51;100548.98;2061524;86;27619;-64
2022/08/02 07:29:41;;;;;;;3.58;3.10;;;;;;;31.71;47.75;100551.30;2040076;87;28760;-63
2022/08/02 07:32:42;;;;;;;7.35;3.27;;;;;;;31.33;46.77;100543.52;2040502;87;31054;-65
2022/08/02 07:35:43;;;;;;;3.08;2.77;;;;;;;31.09;47.15;100544.34;2040247;87;33380;-64
2022/08/02 07:38:45;;;;;;;6.17;2.70;;;;;;;31.08;47.16;100539.87;2040330;87;29087;-63
2022/08/02 07:41:50;;;;;;;8.08;3.25;;;;;;;31.10;46.54;100541.91;2040514;87;27692;-64
2022/08/02 07:44:53;;;;;;;5.87;3.02;;;;;;;31.28;46.72;100533.05;2040214;87;29407;-64
2022/08/02 07:47:55;;;;;;;5.42;3.22;;;;;;;31.05;45.92;100540.27;2040437;87;32355;-66
2022/08/02 07:50:59;;;;;;;4.75;2.60;;;;;;;31.02;45.91;100543.48;2017247;87;57432;-66
2022/08/02 07:54:01;;;;;;;2.37;2.27;;;;;;;31.22;45.99;100538.05;2059296;86;30119;-66
2022/08/02 07:57:03;;;;;;;2.50;2.30;;;;;;;31.34;45.78;100534.16;2059573;86;27830;-64
2022/08/02 08:00:08;;;;;;;4.12;3.20;;;;;;;31.24;45.14;100533.16;2077894;85;29053;-65
2022/08/02 08:03:10;;;;;;;3.10;2.80;;;;;;;31.12;44.51;100524.56;2066561;85;31115;-65
2022/08/02 08:06:11;;;;;;;3.37;2.75;;;;;;;31.02;43.66;100533.25;2066914;86;32973;-65
2022/08/02 08:09:12;;;;;;;3.08;2.80;;;;;;;30.86;44.43;100541.89;2065636;84;29291;-65
2022/08/02 08:12:15;;;;;;;3.08;2.35;;;;;;;30.87;43.85;100540.29;2078970;85;27694;-65
2022/08/02 08:15:16;;;;;;;3.87;2.50;;;;;;;30.91;43.69;100544.91;2079000;85;29172;-64
2022/08/02 08:18:20;;;;;;;2.08;1.98;;;;;;;30.99;44.58;100544.72;2041436;87;32152;-63
2022/08/02 08:21:22;;;;;;;2.77;2.55;;;;;;;31.04;43.53;100539.44;2062306;86;33063;-64
2022/08/02 08:24:23;;;;;;;2.58;1.90;;;;;;;30.98;42.83;100551.31;2062311;86;29686;-65
2022/08/02 08:27:26;;;;;;;3.10;1.90;;;;;;;30.90;42.63;100550.12;2062855;86;27635;-65
2022/08/02 08:30:27;;;;;;;1.80;1.70;;;;;;;30.83;42.20;100552.84;2062276;86;28677;-62
2022/08/02 08:33:28;;;;;;;3.02;1.70;;;;;;;30.88;42.39;100552.23;2061878;86;32263;-65
2022/08/02 08:36:30;;;;;;;2.12;1.70;;;;;;;30.97;41.46;100557.06;2062098;86;33353;-64
2022/08/02 08:39:31;;;;;;;1.87;1.77;;;;;;;30.90;42.09;100552.34;2062289;86;29341;-64
2022/08/02 08:42:36;;;;;;;2.00;1.80;;;;;;;30.66;41.06;100552.30;2061985;86;27747;-65
2022/08/02 08:45:40;;;;;;;2.08;1.65;;;;;;;30.18;41.66;100557.66;2062289;86;28838;-64
2022/08/02 08:48:45;;;;;;;1.85;1.55;;;;;;;30.02;41.93;100551.36;2043747;85;31047;-67
2022/08/02 08:51:47;;;;;;;2.90;1.27;;;;;;;29.69;41.69;100561.02;2076559;85;32483;-65
2022/08/02 08:54:49;;;;;;;1.77;1.20;;;;;;;29.80;41.78;100564.30;2076412;85;30201;-65
2022/08/02 08:57:51;;;;;;;2.65;1.32;;;;;;;29.79;41.30;100568.95;2076939;85;27683;-65
2022/08/02 09:00:53;;;;;;;1.55;1.10;;;;;;;29.91;41.23;100572.05;2076702;85;29106;-65
2022/08/02 09:03:55;;;;;;;4.22;1.30;;;;;;;30.06;40.03;100567.01;2076410;85;30873;-64
2022/08/02 09:06:57;;;;;;;2.15;1.20;;;;;;;30.15;40.73;100568.05;2076533;85;33031;-64
2022/08/02 09:09:58;;;;;;;3.33;1.60;;;;;;;29.99;39.52;100562.81;2083814;85;29788;-66
2022/08/02 09:13:21;;;;;;;1.82;1.10;;;;;;;29.80;40.75;100561.00;2087828;85;27714;-65
2022/08/02 09:16:41;;;;;;;1.87;1.40;;;;;;;29.82;40.02;100560.82;2087243;85;30010;-64
2022/08/02 09:19:42;;;;;;;2.35;1.40;;;;;;;29.65;40.53;100556.06;2087072;85;31094;-64
2022/08/02 09:22:44;;;;;;;1.92;1.40;;;;;;;29.60;40.65;100555.28;2087837;85;33986;-64
2022/08/02 09:26:01;;;;;;;2.77;2.58;;;;;;;29.59;40.93;100556.33;2087620;85;30286;-64
2022/08/02 09:29:02;;;;;;;2.67;2.10;;;;;;;29.41;40.44;100558.99;2087821;85;27718;-66
2022/08/02 09:32:05;;;;;;;1.22;1.20;;;;;;;29.25;40.27;100559.19;2087664;85;29054;-65
2022/08/02 09:35:08;;;;;;;1.40;1.10;;;;;;;29.10;39.50;100557.31;2087849;85;31685;-65
2022/08/02 09:38:12;;;;;;;1.57;1.07;;;;;;;28.99;39.41;100554.18;2087664;85;33902;-65
2022/08/02 09:41:21;;;;;;;;;;;;;;;28.97;39.96;100557.14;2090413;85;29345;-66
2022/08/02 09:44:24;;;;;;;2.02;1.40;;;;;;;28.95;39.67;100556.47;2087537;85;27710;-65
2022/08/02 09:47:29;;;;;;;2.35;1.37;;;;;;;28.93;40.02;100558.56;2061408;85;29155;-64
2022/08/02 09:50:30;;;;;;;2.47;1.30;;;;;;;28.81;40.15;100552.66;2082703;85;31043;-64
2022/08/02 09:53:33;;;;;;;2.52;1.32;;;;;;;28.66;40.71;100557.62;2082343;85;33902;-64
2022/08/02 09:56:54;;;;;;;8.28;7.45;;;;;;;28.53;40.51;100552.45;2081851;84;29773;-65
2022/08/02 09:59:57;;;;;;;2.52;1.62;;;;;;;28.26;39.83;100561.66;2081682;85;27750;-65
2022/08/02 10:03:10;;;;;;;2.52;1.40;;;;;;;27.95;40.52;100558.45;2082084;85;29108;-65
2022/08/02 10:06:12;;;;;;;1.85;1.20;;;;;;;27.82;40.77;100559.93;2081879;85;31449;-65
2022/08/02 10:09:13;;;;;;;2.12;1.30;;;;;;;27.72;41.10;100549.66;2081762;85;34109;-65
2022/08/02 10:12:15;;;;;;;4.55;1.25;;;;;;;27.75;41.46;100554.80;2082145;85;29680;-64
2022/08/02 10:15:17;;;;;;;1.30;1.20;;;;;;;27.82;41.16;100546.66;2081965;85;27555;-64
2022/08/02 10:18:19;;;;;;;1.20;1.10;;;;;;;27.83;41.28;100547.88;2082689;85;29052;-64
2022/08/02 10:21:46;;;;;;;7.62;5.78;;;;;;;27.85;41.44;100549.05;2086112;85;32183;-66
2022/08/02 10:24:54;;;;;;;1.80;1.30;;;;;;;27.86;40.89;100550.77;2087886;85;33065;-65
2022/08/02 10:27:58;;;;;;;1.32;1.22;;;;;;;27.76;40.85;100549.64;2087804;85;29410;-65
2022/08/02 10:31:05;;;;;;;1.15;1.10;;;;;;;27.64;41.09;100550.58;2062440;85;27804;-66
2022/08/02 10:34:10;;;;;;;2.55;1.32;;;;;;;27.68;40.69;100551.93;2087367;85;30120;-64
2022/08/02 10:37:13;;;;;;;2.70;1.10;;;;;;;27.63;40.55;100552.14;2087779;85;30471;-65
2022/08/02 10:40:25;;;;;;;6.05;1.40;;;;;;;27.56;40.26;100559.74;2087840;85;33074;-65
2022/08/02 10:43:38;;;;;;;3.72;1.40;;;;;;;27.53;40.25;100557.38;2087811;85;29733;-67
2022/08/02 10:46:39;;;;;;;2.10;1.50;;;;;;;27.48;40.53;100552.05;2087793;85;27650;-64
2022/08/02 10:49:59;;;;;;;1.45;1.35;;;;;;;27.41;40.70;100558.77;2087996;85;29648;-65
2022/08/02 10:53:32;;;;;;;1.50;1.40;;;;;;;27.36;40.63;100553.82;2087619;85;31756;-65
2022/08/02 10:56:42;;;;;;;4.08;3.67;;;;;;;27.38;40.34;100552.28;2087580;85;33393;-65
2022/08/02 10:59:43;;;;;;;4.53;1.60;;;;;;;27.41;40.55;100556.02;2080286;85;29378;-64
2022/08/02 11:02:47;;;;;;;3.52;1.12;;;;;;;27.44;40.72;100553.79;2087738;85;27618;-64
2022/08/02 11:06:03;;;;;;;2.63;1.43;;;;;;;27.40;40.06;100542.80;2087854;85;29647;-65
2022/08/02 11:09:28;;;;;;;3.67;1.32;;;;;;;27.25;40.14;100550.11;2087604;85;31122;-64
2022/08/02 11:12:29;;;;;;;1.98;1.45;;;;;;;27.12;40.03;100543.30;2061719;85;33680;-64
2022/08/02 11:15:57;;;;;;;1.25;1.12;;;;;;;27.00;40.49;100544.70;2087734;85;29750;-64
2022/08/02 11:19:02;;;;;;;1.40;0.98;;;;;;;27.00;40.99;100543.33;2086039;85;27825;-63
2022/08/02 11:22:08;;;;;;;1.72;1.47;;;;;;;26.95;41.18;100549.91;2084158;85;29701;-64
2022/08/02 11:25:24;;;;;;;3.42;1.17;;;;;;;26.87;40.46;100546.67;2084369;85;31030;-64
2022/08/02 11:28:26;;;;;;;2.65;1.40;;;;;;;26.83;40.36;100533.78;2083333;85;33460;-65
2022/08/02 11:31:28;;;;;;;1.50;1.17;;;;;;;26.87;40.46;100527.42;2084541;85;29340;-64
2022/08/02 11:34:36;;;;;;;5.97;1.50;;;;;;;26.88;40.46;100533.27;2084517;85;27652;-64
2022/08/02 11:37:37;;;;;;;;;;;;;;;26.77;39.90;100529.47;2086051;85;29662;-65
2022/08/02 11:40:38;;;;;;;1.25;1.15;;;;;;;26.64;40.20;100532.27;2083980;85;31831;-63
2022/08/02 11:43:40;;;;;;;1.30;1.20;;;;;;;26.56;40.84;100530.06;2084722;85;33375;-62
2022/08/02 11:46:42;;;;;;;2.85;1.42;;;;;;;26.50;40.82;100538.49;2084092;85;30454;-65
2022/08/02 11:49:43;;;;;;;3.20;1.47;;;;;;;26.43;40.59;100531.47;2086926;85;27603;-63
2022/08/02 11:52:45;;;;;;;5.65;4.90;;;;;;;26.37;40.28;100531.66;2087801;85;29072;-64
2022/08/02 11:55:46;;;;;;;3.58;1.70;;;;;;;26.31;40.91;100528.75;2087800;85;31457;-63
2022/08/02 11:59:07;;;;;;;2.52;1.20;;;;;;;26.30;40.90;100533.38;2087694;85;33047;-63
2022/08/02 12:02:09;;;;;;;2.33;1.62;;;;;;;26.23;40.42;100526.84;2087763;85;29335;-63
2022/08/02 12:05:18;;;;;;;1.82;1.45;;;;;;;26.16;40.55;100529.96;2087719;85;27727;-63
2022/08/02 12:08:23;;;;;;;1.17;1.07;;;;;;;26.12;40.94;100521.22;2086292;85;28223;-65
2022/08/02 12:11:23;;;;;;;7.50;1.57;;;;;;;26.14;41.08;100522.41;2078636;85;31637;-64
2022/08/02 12:14:26;;;;;;;5.47;4.50;;;;;;;26.14;41.13;100527.41;2042350;86;34170;-64
2022/08/02 12:20:48;;;;;;;1.98;1.47;;;;;;;26.12;40.90;100518.47;2042704;87;27646;-65
2022/08/02 12:23:50;;;;;;;1.90;1.15;;;;;;;26.09;40.83;100526.48;2077498;85;28884;-64
2022/08/02 12:26:52;;;;;;;1.85;1.32;;;;;;;26.01;40.64;100517.40;2042167;87;32114;-64
2022/08/02 12:30:01;;;;;;;4.70;2.20;;;;;;;25.97;40.99;100510.56;2078063;85;33320;-63
2022/08/02 12:33:08;;;;;;;1.62;1.30;;;;;;;25.97;40.95;100526.50;2042577;87;29334;-64
2022/08/02 12:36:28;;;;;;;2.25;1.25;;;;;;;26.00;41.46;100520.67;2078095;85;27627;-65
2022/08/02 12:39:43;;;;;;;1.37;1.27;;;;;;;26.01;40.94;100517.40;2053095;85;28654;-63
2022/08/02 12:42:50;;;;;;;1.35;1.25;;;;;;;26.12;41.86;100518.97;2078211;85;31105;-64
2022/08/02 12:45:55;;;;;;;1.90;1.37;;;;;;;26.26;41.62;100514.67;2078034;85;33037;-64
2022/08/02 12:48:58;;;;;;;1.55;1.30;;;;;;;26.35;41.39;100512.24;2078316;85;29405;-63
2022/08/02 12:52:00;;;;;;;3.08;1.52;;;;;;;26.36;41.09;100511.21;2078249;85;28272;-65
2022/08/02 12:55:15;;;;;;;2.30;1.35;;;;;;;26.38;41.07;100520.14;2078375;85;29720;-65
2022/08/02 12:58:18;;;;;;;2.33;1.47;;;;;;;26.40;41.04;100507.09;2078026;85;30975;-64
2022/08/02 13:04:25;;;;;;;5.92;2.52;;;;;;;26.45;40.71;100507.43;1939766;91;29350;-66
2022/08/02 13:07:27;;;;;;;3.60;1.50;;;;;;;26.46;40.77;100502.28;1939657;91;27808;-66
2022/08/02 13:10:29;;;;;;;1.25;1.15;;;;;;;26.42;40.50;100506.91;1942029;90;28909;-63
2022/08/02 13:13:30;;;;;;;1.20;1.20;;;;;;;26.40;40.21;100500.22;1903744;93;31574;-65
2022/08/02 13:16:31;;;;;;;2.00;1.47;;;;;;;26.35;40.36;100496.63;1916601;92;34014;-66
2022/08/02 13:19:33;;;;;;;3.10;1.15;;;;;;;26.31;40.20;100492.52;1915772;92;29702;-66
2022/08/02 13:22:35;;;;;;;2.75;1.55;;;;;;;26.30;40.47;100493.55;1900070;93;27855;-65
2022/08/02 13:25:37;;;;;;;3.35;1.32;;;;;;;26.32;40.53;100493.36;1941291;91;29578;-66
2022/08/02 13:28:41;;;;;;;4.65;2.40;;;;;;;26.32;40.60;100493.36;1931016;91;31404;-65
2022/08/02 13:31:41;;;;;;;3.92;1.90;;;;;;;26.36;40.43;100483.74;1912540;93;33746;-66
2022/08/02 13:34:43;;;;;;;3.17;1.15;;;;;;;26.37;40.31;100475.34;1934640;92;30579;-66
2022/08/02 13:37:46;;;;;;;4.40;1.92;;;;;;;26.34;40.58;100468.83;1946013;91;27914;-66
2022/08/02 13:44:08;;;;;;;2.40;1.45;;;;;;;26.39;40.55;100466.91;1899309;93;32149;-63
2022/08/02 13:47:10;;;;;;;2.58;1.30;;;;;;;26.42;40.36;100460.20;1934648;92;34222;-62
2022/08/02 13:50:11;;;;;;;6.83;2.60;;;;;;;26.44;40.58;100452.64;1945990;91;29459;-63
2022/08/02 13:53:12;;;;;;;3.30;1.22;;;;;;;26.48;40.84;100445.77;1946169;91;27664;-64
2022/08/02 13:56:14;;;;;;;1.85;1.30;;;;;;;26.53;40.54;100450.23;1946036;91;29064;-64
2022/08/02 13:59:16;;;;;;;7.75;2.37;;;;;;;26.58;40.68;100449.69;1945716;91;32295;-63
2022/08/02 14:02:17;;;;;;;8.00;1.82;;;;;;;26.62;40.75;100446.39;2066664;85;33145;-63
2022/08/02 14:05:18;;;;;;;3.72;1.52;;;;;;;26.62;40.13;100442.27;2078777;85;28571;-67
2022/08/02 14:08:21;;;;;;;2.20;1.17;;;;;;;26.61;40.41;100441.09;2079109;85;27731;-65
2022/08/02 14:11:23;;;;;;;1.67;1.27;;;;;;;26.59;40.07;100438.50;2083702;84;29327;-64
2022/08/02 14:14:24;;;;;;;1.70;1.60;;;;;;;26.58;39.92;100441.44;2053596;86;30546;-63
2022/08/02 14:17:26;;;;;;;2.50;1.55;;;;;;;26.59;40.24;100441.78;2053777;85;33558;-66
2022/08/02 14:20:27;;;;;;;3.15;1.67;;;;;;;26.55;40.38;100441.30;2053489;86;29770;-64
2022/08/02 14:23:29;;;;;;;3.25;1.60;;;;;;;26.60;40.15;100439.38;2053915;86;27847;-64
2022/08/02 14:26:30;;;;;;;3.02;1.60;;;;;;;26.61;40.43;100436.97;2053881;86;29395;-65
2022/08/02 14:29:31;;;;;;;1.52;1.42;;;;;;;26.63;40.47;100442.61;2053580;86;30930;-65
2022/08/02 14:32:34;;;;;;;3.47;1.22;;;;;;;26.66;40.13;100444.14;2053255;86;34271;-64
2022/08/02 14:35:36;;;;;;;4.30;1.15;;;;;;;26.66;40.04;100439.52;2053749;85;29710;-63